createdAt,value
2019-02-10T00:00:21.467Z,876.04
2019-02-10T00:01:21.442Z,876.10
2019-02-10T00:03:14.607Z,876.08
2019-02-10T00:04:14.859Z,876.10
2019-02-10T00:06:08.330Z,876.05
2019-02-10T00:07:08.193Z,876.08
2019-02-10T00:09:01.289Z,876.09
2019-02-10T00:10:01.256Z,876.08
2019-02-10T00:11:54.866Z,876.09
2019-02-10T00:12:54.627Z,876.10
2019-02-10T00:14:47.949Z,876.10
2019-02-10T00:15:48.189Z,876.08
2019-02-10T00:17:41.742Z,876.15
2019-02-10T00:18:41.314Z,876.16
2019-02-10T00:20:34.640Z,876.14
2019-02-10T00:21:34.654Z,876.17
2019-02-10T00:23:28.253Z,876.17
2019-02-10T00:24:28.005Z,876.18
2019-02-10T00:26:21.324Z,876.15
2019-02-10T00:27:21.589Z,876.17
2019-02-10T00:29:13.777Z,876.18
2019-02-10T00:30:13.531Z,876.17
2019-02-10T00:32:06.492Z,876.20
2019-02-10T00:33:06.247Z,876.21
2019-02-10T00:34:58.975Z,876.24
2019-02-10T00:35:58.591Z,876.22
2019-02-10T00:37:51.145Z,876.27
2019-02-10T00:38:50.872Z,876.25
2019-02-10T00:40:44.746Z,876.27
2019-02-10T00:41:44.508Z,876.22
2019-02-10T00:43:36.803Z,876.23
2019-02-10T00:44:36.779Z,876.23
2019-02-10T00:46:30.392Z,876.23
2019-02-10T00:47:30.131Z,876.25
2019-02-10T00:49:23.288Z,876.26
2019-02-10T00:50:23.287Z,876.25
2019-02-10T00:52:16.816Z,876.27
2019-02-10T00:53:16.591Z,876.30
2019-02-10T00:55:09.952Z,876.29
2019-02-10T00:56:09.971Z,876.31
2019-02-10T00:58:02.862Z,876.31
2019-02-10T00:59:02.637Z,876.28
2019-02-10T01:00:55.991Z,876.36
2019-02-10T01:01:56.226Z,876.32
2019-02-10T01:03:48.415Z,876.31
2019-02-10T01:04:48.441Z,876.32
2019-02-10T01:06:41.784Z,876.35
2019-02-10T01:07:41.167Z,876.34
2019-02-10T01:09:34.416Z,876.37
2019-02-10T01:10:34.261Z,876.33
2019-02-10T01:12:27.411Z,876.33
2019-02-10T01:13:26.960Z,876.33
2019-02-10T01:15:20.539Z,876.33
2019-02-10T01:16:20.563Z,876.33
2019-02-10T01:18:13.214Z,876.31
2019-02-10T01:19:12.942Z,876.34
2019-02-10T01:21:06.571Z,876.34
2019-02-10T01:22:06.553Z,876.33
2019-02-10T01:23:59.702Z,876.39
2019-02-10T01:24:59.680Z,876.37
2019-02-10T01:26:53.225Z,876.34
2019-02-10T01:27:53.224Z,876.34
2019-02-10T01:29:46.600Z,876.38
2019-02-10T01:30:46.567Z,876.35
2019-02-10T01:32:40.146Z,876.35
2019-02-10T01:33:39.929Z,876.36
2019-02-10T01:35:32.817Z,876.37
2019-02-10T01:36:32.786Z,876.35
2019-02-10T01:38:26.152Z,876.35
2019-02-10T01:39:26.143Z,876.32
2019-02-10T01:41:19.494Z,876.32
2019-02-10T01:42:19.488Z,876.30
2019-02-10T01:44:13.072Z,876.31
2019-02-10T01:45:12.857Z,876.30
2019-02-10T01:47:05.930Z,876.27
2019-02-10T01:48:06.205Z,876.30
2019-02-10T01:49:59.499Z,876.33
2019-02-10T01:50:59.543Z,876.28
2019-02-10T01:52:52.873Z,876.28
2019-02-10T01:53:52.894Z,876.24
2019-02-10T01:55:46.409Z,876.21
2019-02-10T01:56:46.185Z,876.19
2019-02-10T01:58:37.809Z,876.21
2019-02-10T01:59:38.080Z,876.21
2019-02-10T02:01:31.649Z,876.22
2019-02-10T02:02:31.167Z,876.23
2019-02-10T02:04:24.506Z,876.22
2019-02-10T02:05:24.784Z,876.18
2019-02-10T02:07:18.328Z,876.15
2019-02-10T02:08:17.873Z,876.16
2019-02-10T02:10:11.229Z,876.16
2019-02-10T02:11:11.177Z,876.16
2019-02-10T02:13:04.995Z,876.14
2019-02-10T02:14:04.783Z,876.13
2019-02-10T02:15:57.911Z,876.09
2019-02-10T02:16:58.124Z,876.13
2019-02-10T02:18:51.453Z,876.11
2019-02-10T02:19:51.442Z,876.09
2019-02-10T02:21:43.604Z,876.14
2019-02-10T02:22:43.585Z,876.13
2019-02-10T02:24:37.158Z,876.09
2019-02-10T02:25:37.120Z,876.09
2019-02-10T02:27:30.273Z,876.10
2019-02-10T02:28:30.240Z,876.10
2019-02-10T02:30:23.823Z,876.07
2019-02-10T02:31:23.817Z,876.06
2019-02-10T02:33:17.216Z,876.03
2019-02-10T02:34:16.919Z,876.01
2019-02-10T02:36:09.017Z,876.01
2019-02-10T02:37:08.787Z,876.03
2019-02-10T02:39:02.403Z,875.98
2019-02-10T02:40:02.229Z,875.99
2019-02-10T02:41:55.317Z,875.98
2019-02-10T02:42:55.040Z,875.95
2019-02-10T02:44:47.411Z,875.94
2019-02-10T02:45:47.440Z,875.92
2019-02-10T02:47:39.950Z,875.93
2019-02-10T02:48:39.749Z,875.91
2019-02-10T02:50:32.831Z,875.92
2019-02-10T02:51:32.818Z,875.93
2019-02-10T02:53:26.431Z,875.91
2019-02-10T02:54:26.206Z,875.91
2019-02-10T02:56:20.143Z,875.84
2019-02-10T02:57:19.767Z,875.88
2019-02-10T02:59:13.039Z,875.84
2019-02-10T03:00:12.852Z,875.79
2019-02-10T03:02:06.443Z,875.84
2019-02-10T03:03:06.431Z,875.84
2019-02-10T03:05:00.047Z,875.87
2019-02-10T03:05:59.824Z,875.85
2019-02-10T03:07:51.920Z,875.83
2019-02-10T03:08:52.118Z,875.84
2019-02-10T03:10:45.740Z,875.80
2019-02-10T03:11:45.244Z,875.79
2019-02-10T03:13:38.828Z,875.78
2019-02-10T03:14:38.842Z,875.76
2019-02-10T03:16:31.396Z,875.74
2019-02-10T03:17:30.888Z,875.77
2019-02-10T03:19:24.489Z,875.73
2019-02-10T03:20:24.457Z,875.69
2019-02-10T03:22:18.207Z,875.73
2019-02-10T03:23:17.613Z,875.70
2019-02-10T03:25:11.056Z,875.70
2019-02-10T03:26:11.168Z,875.68
2019-02-10T03:28:04.516Z,875.66
2019-02-10T03:29:04.311Z,875.63
2019-02-10T03:30:56.859Z,875.60
2019-02-10T03:31:56.822Z,875.63
2019-02-10T03:33:49.414Z,875.59
2019-02-10T03:34:49.212Z,875.56
2019-02-10T03:36:43.092Z,875.54
2019-02-10T03:37:43.046Z,875.57
2019-02-10T03:39:36.614Z,875.57
2019-02-10T03:40:36.171Z,875.55
2019-02-10T03:42:29.528Z,875.52
2019-02-10T03:43:29.514Z,875.56
2019-02-10T03:45:23.323Z,875.52
2019-02-10T03:46:22.824Z,875.51
2019-02-10T03:48:16.444Z,875.50
2019-02-10T03:49:16.172Z,875.46
2019-02-10T03:51:08.994Z,875.43
2019-02-10T03:52:08.500Z,875.44
2019-02-10T03:54:01.894Z,875.44
2019-02-10T03:55:01.845Z,875.44
2019-02-10T03:56:55.450Z,875.45
2019-02-10T03:57:55.191Z,875.41
2019-02-10T03:59:48.801Z,875.40
2019-02-10T04:00:48.566Z,875.38
2019-02-10T04:02:42.107Z,875.39
2019-02-10T04:03:41.868Z,875.37
2019-02-10T04:05:34.317Z,875.39
2019-02-10T04:06:34.309Z,875.37
2019-02-10T04:08:27.038Z,875.34
2019-02-10T04:09:26.545Z,875.36
2019-02-10T04:11:19.859Z,875.28
2019-02-10T04:12:19.841Z,875.25
2019-02-10T04:14:13.684Z,875.21
2019-02-10T04:15:13.465Z,875.19
2019-02-10T04:17:05.567Z,875.15
2019-02-10T04:18:05.512Z,875.17
2019-02-10T04:19:59.099Z,875.16
2019-02-10T04:20:59.152Z,875.15
2019-02-10T04:22:52.255Z,875.19
2019-02-10T04:23:52.243Z,875.14
2019-02-10T04:25:45.146Z,875.12
2019-02-10T04:26:44.934Z,875.10
2019-02-10T04:28:37.525Z,875.11
2019-02-10T04:29:37.520Z,875.07
2019-02-10T04:31:30.815Z,875.07
2019-02-10T04:32:30.564Z,875.05
2019-02-10T04:34:24.219Z,875.01
2019-02-10T04:35:23.952Z,875.02
2019-02-10T04:37:16.261Z,875.01
2019-02-10T04:38:16.069Z,874.98
2019-02-10T04:40:09.440Z,874.95
2019-02-10T04:41:09.105Z,874.95
2019-02-10T04:43:02.946Z,874.91
2019-02-10T04:44:02.487Z,874.92
2019-02-10T04:45:55.800Z,874.90
2019-02-10T04:46:56.074Z,874.95
2019-02-10T04:48:49.639Z,874.86
2019-02-10T04:49:49.429Z,874.88
2019-02-10T04:51:42.496Z,874.86
2019-02-10T04:52:42.518Z,874.82
2019-02-10T04:54:35.287Z,874.81
2019-02-10T04:55:34.816Z,874.84
2019-02-10T04:57:27.546Z,874.82
2019-02-10T04:58:27.762Z,874.78
2019-02-10T05:00:21.094Z,874.81
2019-02-10T05:01:20.837Z,874.77
2019-02-10T05:03:13.449Z,874.71
2019-02-10T05:04:13.451Z,874.72
2019-02-10T05:06:06.956Z,874.65
2019-02-10T05:07:06.799Z,874.68
2019-02-10T05:09:00.166Z,874.64
2019-02-10T05:10:00.210Z,874.60
2019-02-10T05:11:53.663Z,874.59
2019-02-10T05:12:53.251Z,874.59
2019-02-10T05:14:46.169Z,874.59
2019-02-10T05:15:45.890Z,874.60
2019-02-10T05:17:39.766Z,874.56
2019-02-10T05:18:39.491Z,874.53
2019-02-10T05:20:32.221Z,874.48
2019-02-10T05:21:32.187Z,874.45
2019-02-10T05:23:25.808Z,874.45
2019-02-10T05:24:25.565Z,874.46
2019-02-10T05:26:18.925Z,874.45
2019-02-10T05:27:18.881Z,874.44
2019-02-10T05:29:12.148Z,874.44
2019-02-10T05:30:12.218Z,874.41
2019-02-10T05:32:05.363Z,874.38
2019-02-10T05:33:05.603Z,874.33
2019-02-10T05:34:58.909Z,874.36
2019-02-10T05:35:58.688Z,874.38
2019-02-10T05:37:51.540Z,874.37
2019-02-10T05:38:51.797Z,874.36
2019-02-10T05:40:44.663Z,874.38
2019-02-10T05:41:44.688Z,874.36
2019-02-10T05:43:38.033Z,874.36
2019-02-10T05:44:37.737Z,874.36
2019-02-10T05:46:31.532Z,874.32
2019-02-10T05:47:31.121Z,874.27
2019-02-10T05:49:24.667Z,874.33
2019-02-10T05:50:24.470Z,874.30
2019-02-10T05:52:18.002Z,874.24
2019-02-10T05:53:17.795Z,874.23
2019-02-10T05:55:10.138Z,874.24
2019-02-10T05:56:10.381Z,874.20
2019-02-10T05:58:03.288Z,874.16
2019-02-10T05:59:02.784Z,874.18
2019-02-10T06:00:55.405Z,874.17
2019-02-10T06:01:55.381Z,874.17
2019-02-10T06:03:48.728Z,874.11
2019-02-10T06:04:48.713Z,874.14
2019-02-10T06:06:40.793Z,874.11
2019-02-10T06:07:40.783Z,874.13
2019-02-10T06:09:34.658Z,874.11
2019-02-10T06:10:34.159Z,874.09
2019-02-10T06:12:27.745Z,874.09
2019-02-10T06:13:27.731Z,874.09
2019-02-10T06:15:21.128Z,874.09
2019-02-10T06:16:21.086Z,874.13
2019-02-10T06:18:14.193Z,874.06
2019-02-10T06:19:14.453Z,874.05
2019-02-10T06:21:07.750Z,874.05
2019-02-10T06:22:07.542Z,874.00
2019-02-10T06:24:01.107Z,874.01
2019-02-10T06:25:00.859Z,874.02
2019-02-10T06:26:53.333Z,874.03
2019-02-10T06:27:53.074Z,874.06
2019-02-10T06:29:46.193Z,874.07
2019-02-10T06:30:46.209Z,874.06
2019-02-10T06:32:38.944Z,874.07
2019-02-10T06:33:38.546Z,874.07
2019-02-10T06:35:32.093Z,874.08
2019-02-10T06:36:32.126Z,874.05
2019-02-10T06:38:25.459Z,874.05
2019-02-10T06:39:25.498Z,874.01
2019-02-10T06:41:17.793Z,874.03
2019-02-10T06:42:18.077Z,874.02
2019-02-10T06:44:11.106Z,874.00
2019-02-10T06:45:11.160Z,874.01
2019-02-10T06:47:04.455Z,874.04
2019-02-10T06:48:04.241Z,874.05
2019-02-10T06:49:56.811Z,874.00
2019-02-10T06:50:56.982Z,874.03
2019-02-10T06:52:49.483Z,874.04
2019-02-10T06:53:48.920Z,874.07
2019-02-10T06:55:41.452Z,874.02
2019-02-10T06:56:41.456Z,874.01
2019-02-10T06:58:33.663Z,873.97
2019-02-10T06:59:33.716Z,874.00
2019-02-10T07:01:26.248Z,874.03
2019-02-10T07:02:25.756Z,874.03
2019-02-10T07:04:18.143Z,874.01
2019-02-10T07:05:18.077Z,874.00
2019-02-10T07:07:11.902Z,874.00
2019-02-10T07:08:11.427Z,874.06
2019-02-10T07:10:04.393Z,874.04
2019-02-10T07:11:04.111Z,874.03
2019-02-10T07:12:57.955Z,874.00
2019-02-10T07:13:57.482Z,874.01
2019-02-10T07:15:50.463Z,874.03
2019-02-10T07:16:50.452Z,874.03
2019-02-10T07:18:43.249Z,874.01
2019-02-10T07:19:43.292Z,874.05
2019-02-10T07:21:36.507Z,874.08
2019-02-10T07:22:36.672Z,874.06
2019-02-10T07:24:30.314Z,874.07
2019-02-10T07:25:29.761Z,874.08
2019-02-10T07:27:22.715Z,874.12
2019-02-10T07:28:22.441Z,874.14
2019-02-10T07:30:16.030Z,874.15
2019-02-10T07:31:15.829Z,874.08
2019-02-10T07:33:09.172Z,874.05
2019-02-10T07:34:09.153Z,874.05
2019-02-10T07:36:02.926Z,874.03
2019-02-10T07:37:02.733Z,874.06
2019-02-10T07:38:56.661Z,874.10
2019-02-10T07:39:56.631Z,874.07
2019-02-10T07:41:48.896Z,874.05
2019-02-10T07:42:48.685Z,874.10
2019-02-10T07:44:42.035Z,874.08
2019-02-10T07:45:42.281Z,874.11
2019-02-10T07:47:35.645Z,874.08
2019-02-10T07:48:35.365Z,874.12
2019-02-10T07:50:28.735Z,874.11
2019-02-10T07:51:28.712Z,874.09
2019-02-10T07:53:22.909Z,874.09
2019-02-10T07:54:22.102Z,874.02
2019-02-10T07:56:15.463Z,874.06
2019-02-10T07:57:15.664Z,874.08
2019-02-10T07:59:09.296Z,874.06
2019-02-10T08:00:08.774Z,874.05
2019-02-10T08:02:01.443Z,874.09
2019-02-10T08:03:01.222Z,874.11
2019-02-10T08:04:54.779Z,874.08
2019-02-10T08:05:54.547Z,874.08
2019-02-10T08:07:48.131Z,874.12
2019-02-10T08:08:48.155Z,874.18
2019-02-10T08:10:41.729Z,874.11
2019-02-10T08:11:41.488Z,874.16
2019-02-10T08:13:34.629Z,874.11
2019-02-10T08:14:34.839Z,874.10
2019-02-10T08:16:28.416Z,874.16
2019-02-10T08:17:27.916Z,874.14
2019-02-10T08:19:21.297Z,874.15
2019-02-10T08:20:21.261Z,874.16
2019-02-10T08:22:14.644Z,874.12
2019-02-10T08:23:14.128Z,874.15
2019-02-10T08:25:07.740Z,874.13
2019-02-10T08:26:07.761Z,874.16
2019-02-10T08:28:01.290Z,874.21
2019-02-10T08:29:00.851Z,874.22
2019-02-10T08:30:54.193Z,874.22
2019-02-10T08:31:54.158Z,874.27
2019-02-10T08:33:47.735Z,874.31
2019-02-10T08:34:47.546Z,874.29
2019-02-10T08:36:41.156Z,874.28
2019-02-10T08:37:40.869Z,874.30
2019-02-10T08:39:33.663Z,874.28
2019-02-10T08:40:33.235Z,874.29
2019-02-10T08:42:26.720Z,874.35
2019-02-10T08:43:26.802Z,874.38
2019-02-10T08:45:20.299Z,874.43
2019-02-10T08:46:20.179Z,874.44
2019-02-10T08:48:13.245Z,874.46
2019-02-10T08:49:13.230Z,874.44
2019-02-10T08:51:05.809Z,874.46
2019-02-10T08:52:05.579Z,874.46
2019-02-10T08:53:58.173Z,874.51
2019-02-10T08:54:57.920Z,874.50
2019-02-10T08:56:51.776Z,874.50
2019-02-10T08:57:51.244Z,874.51
2019-02-10T08:59:44.592Z,874.51
2019-02-10T09:00:44.583Z,874.50
2019-02-10T09:02:38.792Z,874.55
2019-02-10T09:03:38.162Z,874.53
2019-02-10T09:05:30.641Z,874.58
2019-02-10T09:06:30.884Z,874.59
2019-02-10T09:08:24.493Z,874.56
2019-02-10T09:09:24.006Z,874.54
2019-02-10T09:11:16.671Z,874.59
2019-02-10T09:12:16.683Z,874.60
2019-02-10T09:14:10.248Z,874.63
2019-02-10T09:15:10.287Z,874.62
2019-02-10T09:17:03.371Z,874.63
2019-02-10T09:18:03.341Z,874.60
2019-02-10T09:19:56.964Z,874.62
2019-02-10T09:20:56.693Z,874.66
2019-02-10T09:22:50.309Z,874.61
2019-02-10T09:23:50.336Z,874.66
2019-02-10T09:25:43.852Z,874.67
2019-02-10T09:26:43.683Z,874.70
2019-02-10T09:28:37.023Z,874.68
2019-02-10T09:29:36.955Z,874.69
2019-02-10T09:31:29.778Z,874.66
2019-02-10T09:32:29.884Z,874.66
2019-02-10T09:34:21.932Z,874.69
2019-02-10T09:35:21.917Z,874.73
2019-02-10T09:37:15.498Z,874.62
2019-02-10T09:38:15.257Z,874.68
2019-02-10T09:40:08.128Z,874.67
2019-02-10T09:41:08.129Z,874.66
2019-02-10T09:43:01.744Z,874.72
2019-02-10T09:44:01.476Z,874.69
2019-02-10T09:45:53.849Z,874.73
2019-02-10T09:46:53.796Z,874.72
2019-02-10T09:48:47.392Z,874.74
2019-02-10T09:49:47.399Z,874.81
2019-02-10T09:51:40.733Z,874.83
2019-02-10T09:52:40.481Z,874.83
2019-02-10T09:54:34.299Z,874.86
2019-02-10T09:55:34.090Z,874.89
2019-02-10T09:57:27.215Z,874.91
2019-02-10T09:58:27.435Z,874.88
2019-02-10T10:00:20.112Z,874.91
2019-02-10T10:01:19.671Z,874.92
2019-02-10T10:03:13.289Z,874.93
2019-02-10T10:04:13.264Z,874.93
2019-02-10T10:06:05.623Z,875.01
2019-02-10T10:07:05.598Z,875.02
2019-02-10T10:08:58.746Z,875.03
2019-02-10T10:09:58.986Z,875.06
2019-02-10T10:11:52.293Z,875.08
2019-02-10T10:12:52.323Z,875.08
2019-02-10T10:14:44.772Z,875.10
2019-02-10T10:15:44.370Z,875.09
2019-02-10T10:17:38.008Z,875.09
2019-02-10T10:18:37.708Z,875.09
2019-02-10T10:20:30.281Z,875.12
2019-02-10T10:21:30.101Z,875.14
2019-02-10T10:23:23.850Z,875.18
2019-02-10T10:24:23.386Z,875.16
2019-02-10T10:26:16.789Z,875.22
2019-02-10T10:27:16.995Z,875.21
2019-02-10T10:29:10.321Z,875.22
2019-02-10T10:30:10.379Z,875.22
2019-02-10T10:32:03.848Z,875.25
2019-02-10T10:33:03.700Z,875.27
2019-02-10T10:34:57.256Z,875.32
2019-02-10T10:35:57.063Z,875.34
2019-02-10T10:37:49.408Z,875.37
2019-02-10T10:38:49.127Z,875.39
2019-02-10T10:40:42.929Z,875.38
2019-02-10T10:41:42.478Z,875.40
2019-02-10T10:43:36.083Z,875.41
2019-02-10T10:44:35.789Z,875.40
2019-02-10T10:46:29.604Z,875.41
2019-02-10T10:47:29.164Z,875.44
2019-02-10T10:49:21.234Z,875.47
2019-02-10T10:50:21.273Z,875.44
2019-02-10T10:52:13.613Z,875.49
2019-02-10T10:53:13.589Z,875.49
2019-02-10T10:55:05.716Z,875.55
2019-02-10T10:56:05.659Z,875.56
2019-02-10T10:57:59.227Z,875.59
2019-02-10T10:58:59.277Z,875.64
2019-02-10T11:00:52.423Z,875.65
2019-02-10T11:01:52.644Z,875.65
2019-02-10T11:03:45.256Z,875.69
2019-02-10T11:04:45.311Z,875.66
2019-02-10T11:06:38.220Z,875.68
2019-02-10T11:07:37.415Z,875.65
2019-02-10T11:09:35.617Z,875.66
2019-02-10T11:10:30.977Z,875.64
2019-02-10T11:12:23.063Z,875.70
2019-02-10T11:13:23.075Z,875.72
2019-02-10T11:15:16.889Z,875.71
2019-02-10T11:16:16.392Z,875.69
2019-02-10T11:18:09.787Z,875.75
2019-02-10T11:19:09.967Z,875.74
2019-02-10T11:21:03.323Z,875.78
2019-02-10T11:22:03.083Z,875.79
2019-02-10T11:23:56.674Z,875.83
2019-02-10T11:24:56.467Z,875.84
2019-02-10T11:26:50.240Z,875.92
2019-02-10T11:27:50.018Z,875.90
2019-02-10T11:29:42.420Z,875.95
2019-02-10T11:30:42.361Z,875.95
2019-02-10T11:32:34.981Z,876.00
2019-02-10T11:33:34.679Z,875.96
2019-02-10T11:35:27.098Z,876.02
2019-02-10T11:36:27.038Z,876.03
2019-02-10T11:38:20.557Z,876.01
2019-02-10T11:39:20.130Z,875.99
2019-02-10T11:41:14.046Z,876.01
2019-02-10T11:42:14.050Z,875.99
2019-02-10T11:44:07.828Z,876.03
2019-02-10T11:45:07.384Z,876.00
2019-02-10T11:47:00.931Z,876.02
2019-02-10T11:48:00.684Z,876.01
2019-02-10T11:49:54.227Z,876.03
2019-02-10T11:50:54.316Z,876.06
2019-02-10T11:52:46.388Z,876.09
2019-02-10T11:53:46.853Z,876.10
2019-02-10T11:55:40.151Z,876.09
2019-02-10T11:56:39.773Z,876.08
2019-02-10T11:58:32.299Z,876.10
2019-02-10T11:59:32.316Z,876.11
2019-02-10T12:01:24.878Z,876.07
2019-02-10T12:02:24.423Z,876.11
2019-02-10T12:04:16.733Z,876.07
2019-02-10T12:05:16.749Z,876.04
2019-02-10T12:07:10.302Z,876.05
2019-02-10T12:08:10.276Z,876.03
2019-02-10T12:10:03.645Z,876.05
2019-02-10T12:11:03.647Z,876.06
2019-02-10T12:12:56.228Z,876.10
2019-02-10T12:13:56.008Z,876.13
2019-02-10T12:15:48.697Z,876.16
2019-02-10T12:16:48.717Z,876.16
2019-02-10T12:18:41.304Z,876.22
2019-02-10T12:19:40.989Z,876.21
2019-02-10T12:21:34.352Z,876.26
2019-02-10T12:22:34.129Z,876.27
2019-02-10T12:24:28.529Z,876.24
2019-02-10T12:25:27.483Z,876.20
2019-02-10T12:27:21.083Z,876.30
2019-02-10T12:28:20.832Z,876.26
2019-02-10T12:30:13.334Z,876.23
2019-02-10T12:31:13.151Z,876.27
2019-02-10T12:33:06.467Z,876.26
2019-02-10T12:34:06.731Z,876.29
2019-02-10T12:36:00.034Z,876.28
2019-02-10T12:37:00.098Z,876.31
2019-02-10T12:38:51.914Z,876.30
2019-02-10T12:39:59.457Z,876.32
2019-02-10T12:41:43.991Z,876.29
2019-02-10T12:42:43.506Z,876.25
2019-02-10T12:44:36.910Z,876.27
2019-02-10T12:45:36.884Z,876.27
2019-02-10T12:47:30.427Z,876.26
2019-02-10T12:48:30.201Z,876.26
2019-02-10T12:50:23.852Z,876.22
2019-02-10T12:51:23.787Z,876.22
2019-02-10T12:53:17.403Z,876.22
2019-02-10T12:54:17.141Z,876.16
2019-02-10T12:56:10.273Z,876.14
2019-02-10T12:57:10.235Z,876.18
2019-02-10T12:59:03.024Z,876.20
2019-02-10T13:00:02.574Z,876.16
2019-02-10T13:01:54.941Z,876.17
2019-02-10T13:02:55.143Z,876.17
2019-02-10T13:04:48.743Z,876.16
2019-02-10T13:05:48.699Z,876.17
2019-02-10T13:07:41.872Z,876.19
2019-02-10T13:08:41.896Z,876.19
2019-02-10T13:10:34.152Z,876.22
2019-02-10T13:11:34.191Z,876.20
2019-02-10T13:13:27.329Z,876.27
2019-02-10T13:14:27.505Z,876.26
2019-02-10T13:16:20.837Z,876.27
2019-02-10T13:17:20.871Z,876.30
2019-02-10T13:19:14.223Z,876.28
2019-02-10T13:20:14.192Z,876.28
2019-02-10T13:22:06.794Z,876.23
2019-02-10T13:23:06.507Z,876.26
2019-02-10T13:24:59.952Z,876.23
2019-02-10T13:25:59.625Z,876.23
2019-02-10T13:27:53.151Z,876.31
2019-02-10T13:28:52.971Z,876.29
2019-02-10T13:30:46.945Z,876.31
2019-02-10T13:31:46.572Z,876.27
2019-02-10T13:33:39.854Z,876.35
2019-02-10T13:34:39.920Z,876.32
2019-02-10T13:36:32.786Z,876.30
2019-02-10T13:37:32.574Z,876.27
2019-02-10T13:39:26.146Z,876.31
2019-02-10T13:40:26.122Z,876.26
2019-02-10T13:42:19.804Z,876.31
2019-02-10T13:43:19.764Z,876.30
2019-02-10T13:45:13.552Z,876.35
2019-02-10T13:46:13.330Z,876.37
2019-02-10T13:48:06.493Z,876.36
2019-02-10T13:49:06.733Z,876.37
2019-02-10T13:50:59.240Z,876.34
2019-02-10T13:51:59.004Z,876.36
2019-02-10T13:53:52.147Z,876.33
2019-02-10T13:54:52.331Z,876.35
2019-02-10T13:56:45.962Z,876.38
2019-02-10T13:57:45.488Z,876.40
2019-02-10T13:59:37.838Z,876.39
2019-02-10T14:00:37.824Z,876.39
2019-02-10T14:02:30.703Z,876.41
2019-02-10T14:03:30.771Z,876.39
2019-02-10T14:05:23.885Z,876.44
2019-02-10T14:06:24.053Z,876.41
2019-02-10T14:08:17.439Z,876.46
2019-02-10T14:09:17.458Z,876.45
2019-02-10T14:11:10.783Z,876.48
2019-02-10T14:12:10.750Z,876.47
2019-02-10T14:14:03.119Z,876.47
2019-02-10T14:15:03.134Z,876.51
2019-02-10T14:16:56.215Z,876.50
2019-02-10T14:17:56.478Z,876.47
2019-02-10T14:19:50.025Z,876.48
2019-02-10T14:20:49.765Z,876.47
2019-02-10T14:22:43.140Z,876.49
2019-02-10T14:23:43.132Z,876.49
2019-02-10T14:25:36.671Z,876.54
2019-02-10T14:26:36.447Z,876.56
2019-02-10T14:28:29.835Z,876.51
2019-02-10T14:29:29.613Z,876.54
2019-02-10T14:31:23.143Z,876.55
2019-02-10T14:32:23.198Z,876.55
2019-02-10T14:34:16.254Z,876.55
2019-02-10T14:35:16.282Z,876.56
2019-02-10T14:37:10.086Z,876.50
2019-02-10T14:38:09.827Z,876.48
2019-02-10T14:40:04.721Z,876.52
2019-02-10T14:41:02.964Z,876.52
2019-02-10T14:42:56.124Z,876.52
2019-02-10T14:43:55.529Z,876.59
2019-02-10T14:45:47.832Z,876.55
2019-02-10T14:46:47.866Z,876.55
2019-02-10T14:48:41.419Z,876.55
2019-02-10T14:49:40.971Z,876.54
2019-02-10T14:51:33.538Z,876.53
2019-02-10T14:52:33.267Z,876.58
2019-02-10T14:54:26.878Z,876.58
2019-02-10T14:55:26.664Z,876.62
2019-02-10T14:57:19.969Z,876.61
2019-02-10T14:58:19.983Z,876.62
2019-02-10T15:00:13.833Z,876.65
2019-02-10T15:01:13.558Z,876.66
2019-02-10T15:03:06.954Z,876.65
2019-02-10T15:04:06.862Z,876.66
2019-02-10T15:06:00.464Z,876.61
2019-02-10T15:07:00.215Z,876.61
2019-02-10T15:08:53.623Z,876.61
2019-02-10T15:09:53.567Z,876.58
2019-02-10T15:11:46.130Z,876.58
2019-02-10T15:12:45.655Z,876.58
2019-02-10T15:14:39.049Z,876.59
2019-02-10T15:15:39.300Z,876.56
2019-02-10T15:17:31.547Z,876.57
2019-02-10T15:18:31.587Z,876.56
2019-02-10T15:20:24.946Z,876.55
2019-02-10T15:21:24.686Z,876.56
2019-02-10T15:23:18.522Z,876.59
2019-02-10T15:24:18.022Z,876.58
2019-02-10T15:26:11.641Z,876.58
2019-02-10T15:27:11.367Z,876.55
2019-02-10T15:29:04.937Z,876.54
2019-02-10T15:30:04.737Z,876.56
2019-02-10T15:31:58.105Z,876.57
2019-02-10T15:32:58.057Z,876.56
2019-02-10T15:34:52.036Z,876.53
2019-02-10T15:35:51.641Z,876.59
2019-02-10T15:37:44.802Z,876.58
2019-02-10T15:38:44.977Z,876.53
2019-02-10T15:40:38.314Z,876.52
2019-02-10T15:41:38.126Z,876.52
2019-02-10T15:43:31.322Z,876.53
2019-02-10T15:44:31.349Z,876.52
2019-02-10T15:46:24.890Z,876.51
2019-02-10T15:47:24.661Z,876.53
2019-02-10T15:49:18.307Z,876.52
2019-02-10T15:50:18.267Z,876.53
2019-02-10T15:52:11.585Z,876.50
2019-02-10T15:53:11.590Z,876.56
2019-02-10T15:55:04.741Z,876.54
2019-02-10T15:56:04.691Z,876.52
2019-02-10T15:57:58.550Z,876.52
2019-02-10T15:58:58.276Z,876.51
2019-02-10T16:00:51.659Z,876.50
2019-02-10T16:01:51.654Z,876.50
2019-02-10T16:03:44.981Z,876.53
2019-02-10T16:04:44.776Z,876.55
2019-02-10T16:06:37.112Z,876.49
2019-02-10T16:07:37.058Z,876.54
2019-02-10T16:09:30.867Z,876.51
2019-02-10T16:10:30.434Z,876.53
2019-02-10T16:12:22.741Z,876.49
2019-02-10T16:13:22.997Z,876.51
2019-02-10T16:15:15.639Z,876.51
2019-02-10T16:16:15.704Z,876.54
2019-02-10T16:18:08.763Z,876.55
2019-02-10T16:19:08.801Z,876.55
2019-02-10T16:21:01.302Z,876.50
2019-02-10T16:22:01.311Z,876.56
2019-02-10T16:23:54.472Z,876.58
2019-02-10T16:24:54.695Z,876.57
2019-02-10T16:26:46.990Z,876.57
2019-02-10T16:27:46.784Z,876.58
2019-02-10T16:29:40.403Z,876.48
2019-02-10T16:30:40.103Z,876.52
2019-02-10T16:32:33.677Z,876.50
2019-02-10T16:33:33.478Z,876.51
2019-02-10T16:35:26.837Z,876.52
2019-02-10T16:36:27.081Z,876.53
2019-02-10T16:38:20.627Z,876.56
2019-02-10T16:39:20.391Z,876.58
2019-02-10T16:41:12.747Z,876.59
2019-02-10T16:42:13.463Z,876.60
2019-02-10T16:44:06.055Z,876.59
2019-02-10T16:45:05.809Z,876.66
2019-02-10T16:46:59.512Z,876.64
2019-02-10T16:47:59.186Z,876.61
2019-02-10T16:49:52.993Z,876.62
2019-02-10T16:50:52.792Z,876.61
2019-02-10T16:52:45.863Z,876.63
2019-02-10T16:53:45.842Z,876.62
2019-02-10T16:55:39.649Z,876.68
2019-02-10T16:56:39.181Z,876.68
2019-02-10T16:58:32.563Z,876.74
2019-02-10T16:59:32.777Z,876.68
2019-02-10T17:01:26.704Z,876.64
2019-02-10T17:02:26.124Z,876.71
2019-02-10T17:04:19.367Z,876.67
2019-02-10T17:05:19.250Z,876.68
2019-02-10T17:07:13.041Z,876.65
2019-02-10T17:08:12.606Z,876.67
2019-02-10T17:10:05.967Z,876.65
2019-02-10T17:11:05.904Z,876.67
2019-02-10T17:12:59.127Z,876.70
2019-02-10T17:13:58.887Z,876.67
2019-02-10T17:15:51.991Z,876.66
2019-02-10T17:16:51.974Z,876.67
2019-02-10T17:18:44.759Z,876.71
2019-02-10T17:19:44.516Z,876.66
2019-02-10T17:21:36.611Z,876.63
2019-02-10T17:22:36.588Z,876.65
2019-02-10T17:24:30.169Z,876.66
2019-02-10T17:25:29.935Z,876.66
2019-02-10T17:27:23.543Z,876.68
2019-02-10T17:28:23.302Z,876.70
2019-02-10T17:30:16.842Z,876.68
2019-02-10T17:31:16.660Z,876.69
2019-02-10T17:33:10.227Z,876.69
2019-02-10T17:34:09.995Z,876.70
2019-02-10T17:36:03.578Z,876.69
2019-02-10T17:37:03.347Z,876.74
2019-02-10T17:38:56.893Z,876.76
2019-02-10T17:39:56.658Z,876.77
2019-02-10T17:41:50.226Z,876.79
2019-02-10T17:42:50.262Z,876.82
2019-02-10T17:44:42.891Z,876.77
2019-02-10T17:45:43.141Z,876.77
2019-02-10T17:47:35.610Z,876.74
2019-02-10T17:48:35.224Z,876.75
2019-02-10T17:50:28.582Z,876.75
2019-02-10T17:51:28.851Z,876.73
2019-02-10T17:53:21.381Z,876.72
2019-02-10T17:54:20.911Z,876.72
2019-02-10T17:56:13.642Z,876.76
2019-02-10T17:57:13.361Z,876.73
2019-02-10T17:59:07.147Z,876.77